Weather at Stockholm-Arlanda Airport

Public forecast

Using degrees Celsius for public forecast. Weather courtesy of forecast.io.

Current aviation weather report (METAR) for Stockholm-Arlanda Airport

Retrieved 2021/04/15 14:50 UTC (12 minutes ago):

ESSA 151450Z 01011KT CAVOK 08/M05 Q1032 R88/09//95 NOSIG

Aviation forecast (TAF) for Stockholm-Arlanda Airport

Retrieved 2021/04/15 12:00 UTC (3 hours ago):

TAF ESSA 151130Z 1512/1612 03012KT CAVOK